createdAt,value
2019-05-16T00:01:48.886Z,7.97
2019-05-16T00:04:17.945Z,5.77
2019-05-16T00:06:48.207Z,6.23
2019-05-16T00:09:28.591Z,8.67
2019-05-16T00:11:58.098Z,5.43
2019-05-16T00:14:28.178Z,5.10
2019-05-16T00:16:58.893Z,4.50
2019-05-16T00:19:38.115Z,6.17
2019-05-16T00:22:08.745Z,5.10
2019-05-16T00:24:40.151Z,6.70
2019-05-16T00:27:09.193Z,9.97
2019-05-16T00:29:49.360Z,7.07
2019-05-16T00:32:19.069Z,9.50
2019-05-16T00:34:48.209Z,6.80
2019-05-16T00:37:18.139Z,9.47
2019-05-16T00:39:58.627Z,6.63
2019-05-16T00:42:28.645Z,6.27
2019-05-16T00:44:58.379Z,5.63
2019-05-16T00:47:28.428Z,5.20
2019-05-16T00:50:08.704Z,7.60
2019-05-16T00:52:39.701Z,7.53
2019-05-16T00:55:11.749Z,5.20
2019-05-16T00:57:40.971Z,8.03
2019-05-16T01:03:03.577Z,5.87
2019-05-16T01:05:32.839Z,7.40
2019-05-16T01:08:03.488Z,5.50
2019-05-16T01:10:41.534Z,5.53
2019-05-16T01:13:10.561Z,7.87
2019-05-16T01:15:42.014Z,7.77
2019-05-16T01:18:11.079Z,7.67
2019-05-16T01:20:49.298Z,6.87
2019-05-16T01:23:19.211Z,6.67
2019-05-16T01:25:48.583Z,5.40
2019-05-16T01:28:18.285Z,8.70
2019-05-16T01:30:50.192Z,7.67
2019-05-16T01:33:19.439Z,6.70
2019-05-16T01:35:48.604Z,6.60
2019-05-16T01:38:18.090Z,6.93
2019-05-16T01:40:58.296Z,7.63
2019-05-16T01:43:28.401Z,7.47
2019-05-16T01:45:58.105Z,8.13
2019-05-16T01:48:29.164Z,5.80
2019-05-16T01:51:07.789Z,5.30
2019-05-16T01:53:39.315Z,7.57
2019-05-16T01:56:09.468Z,7.40
2019-05-16T01:58:38.719Z,6.57
2019-05-16T02:03:52.007Z,4.80
2019-05-16T02:06:21.028Z,7.43
2019-05-16T02:08:49.986Z,6.47
2019-05-16T02:11:28.529Z,6.90
2019-05-16T02:13:58.569Z,8.53
2019-05-16T02:16:28.097Z,9.13
2019-05-16T02:18:58.864Z,5.30
2019-05-16T02:21:38.857Z,7.17
2019-05-16T02:24:08.907Z,10.37
2019-05-16T02:26:38.634Z,6.70
2019-05-16T02:29:10.341Z,7.43
2019-05-16T02:31:42.067Z,5.53
2019-05-16T02:34:11.877Z,6.83
2019-05-16T02:36:41.079Z,5.73
2019-05-16T02:39:11.228Z,7.10
2019-05-16T02:42:01.284Z,6.57
2019-05-16T02:44:32.485Z,7.10
2019-05-16T02:47:02.060Z,5.00
2019-05-16T02:52:21.559Z,5.03
2019-05-16T02:54:51.839Z,7.97
2019-05-16T02:57:21.239Z,6.30
2019-05-16T03:00:01.607Z,5.07
2019-05-16T03:02:31.408Z,7.00
2019-05-16T03:05:01.149Z,5.80
2019-05-16T03:07:41.045Z,6.00
2019-05-16T03:10:11.162Z,9.73
2019-05-16T03:12:41.273Z,4.73
2019-05-16T03:15:12.978Z,6.23
2019-05-16T03:17:44.549Z,3.93
2019-05-16T03:20:23.992Z,7.37
2019-05-16T03:22:54.722Z,5.50
2019-05-16T03:25:25.049Z,6.00
2019-05-16T03:27:57.288Z,4.03
2019-05-16T03:30:35.782Z,6.13
2019-05-16T03:33:05.887Z,5.40
2019-05-16T03:35:35.103Z,5.50
2019-05-16T03:38:05.782Z,6.03
2019-05-16T03:40:44.223Z,4.30
2019-05-16T03:43:13.198Z,7.60
2019-05-16T03:45:42.665Z,5.13
2019-05-16T03:48:12.189Z,5.70
2019-05-16T03:50:51.163Z,4.73
2019-05-16T03:53:21.214Z,5.20
2019-05-16T03:55:51.670Z,5.10
2019-05-16T03:58:22.525Z,6.40
2019-05-16T04:01:02.229Z,8.17
2019-05-16T04:03:33.137Z,4.77
2019-05-16T04:06:02.657Z,6.37
2019-05-16T04:08:35.018Z,5.20
2019-05-16T04:11:13.139Z,6.43
2019-05-16T04:13:42.436Z,6.23
2019-05-16T04:16:12.160Z,5.80
2019-05-16T04:18:42.177Z,4.77
2019-05-16T04:21:21.872Z,6.30
2019-05-16T04:23:51.922Z,6.30
2019-05-16T04:26:21.826Z,4.60
2019-05-16T04:28:51.612Z,5.93
2019-05-16T04:31:31.806Z,6.87
2019-05-16T04:34:03.772Z,5.10
2019-05-16T04:36:32.969Z,7.67
2019-05-16T04:39:02.342Z,5.80
2019-05-16T04:41:41.115Z,5.77
2019-05-16T04:44:11.724Z,6.83
2019-05-16T04:46:41.354Z,5.03
2019-05-16T04:49:11.376Z,5.43
2019-05-16T04:54:24.119Z,4.77
2019-05-16T04:56:53.382Z,5.50
2019-05-16T04:59:22.834Z,4.30
2019-05-16T05:02:02.042Z,4.47
2019-05-16T05:04:31.776Z,6.77
2019-05-16T05:07:03.621Z,5.40
2019-05-16T05:09:32.642Z,5.13
2019-05-16T05:12:11.475Z,9.77
2019-05-16T05:14:41.588Z,8.00
2019-05-16T05:17:10.983Z,8.20
2019-05-16T05:19:44.362Z,4.73
2019-05-16T05:22:23.673Z,5.40
2019-05-16T05:24:54.176Z,6.13
2019-05-16T05:27:26.576Z,5.10
2019-05-16T05:29:55.629Z,4.90
2019-05-16T05:32:27.747Z,4.93
2019-05-16T05:34:59.894Z,8.37
2019-05-16T05:37:29.794Z,3.57
2019-05-16T05:40:00.249Z,5.90
2019-05-16T05:42:41.115Z,3.93
2019-05-16T05:45:13.530Z,5.60
2019-05-16T05:47:42.626Z,4.70
2019-05-16T05:50:13.153Z,3.40
2019-05-16T05:52:51.305Z,3.63
2019-05-16T05:55:20.364Z,4.90
2019-05-16T05:57:50.710Z,2.97
2019-05-16T06:00:21.021Z,4.87
2019-05-16T06:03:02.212Z,3.53
2019-05-16T06:05:50.448Z,5.43
2019-05-16T06:08:20.290Z,3.47
2019-05-16T06:10:50.466Z,4.93
2019-05-16T06:13:31.074Z,2.90
2019-05-16T06:16:00.279Z,4.10
2019-05-16T06:18:30.470Z,5.43
2019-05-16T06:21:00.513Z,2.70
2019-05-16T06:23:41.235Z,4.63
2019-05-16T06:26:12.303Z,3.50
2019-05-16T06:28:41.448Z,4.70
2019-05-16T06:31:13.957Z,4.63
2019-05-16T06:33:42.028Z,2.83
2019-05-16T06:36:11.141Z,4.67
2019-05-16T06:38:40.633Z,6.20
2019-05-16T06:41:10.645Z,5.53
2019-05-16T06:43:50.760Z,5.53
2019-05-16T06:46:20.269Z,6.50
2019-05-16T06:48:50.560Z,4.43
2019-05-16T06:51:20.240Z,4.07
2019-05-16T06:54:00.503Z,5.27
2019-05-16T06:56:30.894Z,4.70
2019-05-16T06:59:00.855Z,3.17
2019-05-16T07:01:30.038Z,5.23
2019-05-16T07:04:10.421Z,5.97
2019-05-16T07:06:54.627Z,3.47
2019-05-16T07:09:11.805Z,4.83
2019-05-16T07:11:41.809Z,4.07
2019-05-16T07:14:22.742Z,6.57
2019-05-16T07:16:50.951Z,7.33
2019-05-16T07:19:20.806Z,7.20
2019-05-16T07:21:50.843Z,6.40
2019-05-16T07:24:30.690Z,4.13
2019-05-16T07:27:00.415Z,4.93
2019-05-16T07:29:30.963Z,10.27
2019-05-16T07:32:00.598Z,5.27
2019-05-16T07:34:41.616Z,7.27
2019-05-16T07:37:10.862Z,5.63
2019-05-16T07:39:41.878Z,6.93
2019-05-16T07:42:11.196Z,3.97
2019-05-16T07:44:50.581Z,5.33
2019-05-16T07:47:20.279Z,4.90
2019-05-16T07:49:50.208Z,4.03
2019-05-16T07:52:20.934Z,7.00
2019-05-16T07:57:34.951Z,5.30
2019-05-16T08:00:04.838Z,3.47
2019-05-16T08:02:33.886Z,2.87
2019-05-16T08:05:15.572Z,4.83
2019-05-16T08:07:44.643Z,3.03
2019-05-16T08:10:13.903Z,5.43
2019-05-16T08:12:42.957Z,3.63
2019-05-16T08:15:21.893Z,3.77
2019-05-16T08:20:23.110Z,5.90
2019-05-16T08:22:51.986Z,4.87
2019-05-16T08:25:31.394Z,4.77
2019-05-16T08:28:01.157Z,4.00
2019-05-16T08:30:31.628Z,3.67
2019-05-16T08:33:02.442Z,3.33
2019-05-16T08:35:34.645Z,3.47
2019-05-16T08:38:03.777Z,2.70
2019-05-16T08:40:32.881Z,2.67
2019-05-16T08:43:04.678Z,3.60
2019-05-16T08:45:43.234Z,3.57
2019-05-16T08:48:12.362Z,2.40
2019-05-16T08:50:10.148Z,8.60
2019-05-16T08:50:46.652Z,4.20
2019-05-16T08:53:13.877Z,5.10
2019-05-16T08:55:53.202Z,3.60
2019-05-16T08:58:22.972Z,3.77
2019-05-16T09:00:56.248Z,5.17
2019-05-16T09:03:24.291Z,5.10
2019-05-16T09:08:37.641Z,5.17
2019-05-16T09:11:27.082Z,4.60
2019-05-16T09:13:51.720Z,3.30
2019-05-16T09:16:20.837Z,3.27
2019-05-16T09:18:50.982Z,3.73
2019-05-16T09:21:20.373Z,3.40
2019-05-16T09:24:07.692Z,3.43
2019-05-16T09:26:38.309Z,3.97
2019-05-16T09:29:08.495Z,4.03
2019-05-16T09:31:39.145Z,4.80
2019-05-16T09:34:17.620Z,3.10
2019-05-16T09:36:48.175Z,5.17
2019-05-16T09:39:17.520Z,4.93
2019-05-16T09:41:54.523Z,4.37
2019-05-16T09:44:27.597Z,3.63
2019-05-16T09:46:57.074Z,3.63
2019-05-16T09:49:26.526Z,3.53
2019-05-16T09:51:56.824Z,4.87
2019-05-16T09:54:34.870Z,4.37
2019-05-16T09:57:06.393Z,3.27
2019-05-16T09:59:37.096Z,6.30
2019-05-16T10:02:07.251Z,4.20
2019-05-16T10:04:49.162Z,7.37
2019-05-16T10:07:18.195Z,6.23
2019-05-16T10:09:50.122Z,5.17
2019-05-16T10:12:18.824Z,3.43
2019-05-16T10:14:59.667Z,4.77
2019-05-16T10:17:27.965Z,4.73
2019-05-16T10:20:00.097Z,6.53
2019-05-16T10:22:27.778Z,4.60
2019-05-16T10:27:40.853Z,5.40
2019-05-16T10:30:10.409Z,6.20
2019-05-16T10:32:39.946Z,4.93
2019-05-16T10:35:10.687Z,4.27
2019-05-16T10:37:39.788Z,4.27
2019-05-16T10:40:09.344Z,6.00
2019-05-16T10:42:38.431Z,5.67
2019-05-16T10:45:17.941Z,6.73
2019-05-16T10:47:49.985Z,4.13
2019-05-16T10:50:19.411Z,3.87
2019-05-16T10:53:07.045Z,5.50
2019-05-16T10:58:03.299Z,3.83
2019-05-16T11:01:11.802Z,4.30
2019-05-16T11:03:06.466Z,4.00
2019-05-16T11:06:01.208Z,5.03
2019-05-16T11:08:16.121Z,4.80
2019-05-16T11:10:47.506Z,5.97
2019-05-16T11:13:17.071Z,4.33
2019-05-16T11:15:56.090Z,5.40
2019-05-16T11:18:27.240Z,4.00
2019-05-16T11:20:58.168Z,4.67
2019-05-16T11:23:30.763Z,5.90
2019-05-16T11:28:42.095Z,5.23
2019-05-16T11:31:11.578Z,5.67
2019-05-16T11:33:40.663Z,6.97
2019-05-16T11:36:12.788Z,7.77
2019-05-16T11:38:40.913Z,5.20
2019-05-16T11:41:11.294Z,4.77
2019-05-16T11:43:43.225Z,5.90
2019-05-16T11:46:12.277Z,6.30
2019-05-16T11:48:44.110Z,6.37
2019-05-16T11:51:13.699Z,6.00
2019-05-16T11:53:42.912Z,6.60
2019-05-16T11:56:21.137Z,4.00
2019-05-16T11:58:50.465Z,7.17
2019-05-16T12:01:19.726Z,6.13
2019-05-16T12:03:48.814Z,6.00
2019-05-16T12:06:27.122Z,5.03
2019-05-16T12:08:56.246Z,4.53
2019-05-16T12:11:27.484Z,5.53
2019-05-16T12:13:56.798Z,4.90
2019-05-16T12:16:37.770Z,4.97
2019-05-16T12:19:06.909Z,6.00
2019-05-16T12:21:36.193Z,7.90
2019-05-16T12:24:07.437Z,4.70
2019-05-16T12:26:47.828Z,5.00
2019-05-16T12:29:19.286Z,6.97
2019-05-16T12:31:58.212Z,6.03
2019-05-16T12:34:28.383Z,6.23
2019-05-16T12:36:57.504Z,9.07
2019-05-16T12:39:26.972Z,9.10
2019-05-16T12:41:59.028Z,7.83
2019-05-16T12:44:37.321Z,10.47
2019-05-16T12:47:07.734Z,11.17
2019-05-16T12:49:38.036Z,11.53
2019-05-16T12:52:08.469Z,10.50
2019-05-16T12:54:47.663Z,9.67
2019-05-16T12:57:18.539Z,13.83
2019-05-16T12:59:50.056Z,12.13
2019-05-16T13:02:21.633Z,12.43
2019-05-16T13:05:02.448Z,13.10
2019-05-16T13:07:32.829Z,10.30
2019-05-16T13:10:06.621Z,12.93
2019-05-16T13:12:37.719Z,9.77
2019-05-16T13:17:51.071Z,10.93
2019-05-16T13:20:20.179Z,9.37
2019-05-16T13:22:49.333Z,9.43
2019-05-16T13:25:27.873Z,12.73
2019-05-16T13:27:57.845Z,11.37
2019-05-16T13:30:27.899Z,7.53
2019-05-16T13:32:57.272Z,10.43
2019-05-16T13:35:37.003Z,8.53
2019-05-16T13:38:07.938Z,9.43
2019-05-16T13:40:38.628Z,8.07
2019-05-16T13:43:10.053Z,9.77
2019-05-16T13:45:47.813Z,6.10
2019-05-16T13:48:19.645Z,5.77
2019-05-16T13:50:48.757Z,7.63
2019-05-16T13:53:18.007Z,10.13
2019-05-16T13:55:56.034Z,5.13
2019-05-16T13:58:28.037Z,4.77
2019-05-16T14:00:57.833Z,4.23
2019-05-16T14:03:27.815Z,4.27
2019-05-16T14:05:58.230Z,5.50
2019-05-16T14:08:28.212Z,5.43
2019-05-16T14:11:01.497Z,4.63
2019-05-16T14:13:32.567Z,5.73
2019-05-16T14:16:10.852Z,5.37
2019-05-16T14:18:39.999Z,4.97
2019-05-16T14:21:37.738Z,5.77
2019-05-16T14:24:21.778Z,6.53
2019-05-16T14:26:52.982Z,8.60
2019-05-16T14:29:24.492Z,6.03
2019-05-16T14:31:53.863Z,8.53
2019-05-16T14:34:32.844Z,5.80
2019-05-16T14:37:02.798Z,5.60
2019-05-16T14:39:38.459Z,9.87
2019-05-16T14:42:06.272Z,7.67
2019-05-16T14:45:04.655Z,6.03
2019-05-16T14:47:17.739Z,5.47
2019-05-16T14:49:48.893Z,6.53
2019-05-16T14:52:17.550Z,5.63
2019-05-16T14:54:57.548Z,5.47
2019-05-16T14:57:27.372Z,4.43
2019-05-16T14:59:56.653Z,5.83
2019-05-16T15:02:29.280Z,4.00
2019-05-16T15:05:10.303Z,7.73
2019-05-16T15:07:41.219Z,5.77
2019-05-16T15:10:12.349Z,5.00
2019-05-16T15:12:42.078Z,3.10
2019-05-16T15:15:24.580Z,5.73
2019-05-16T15:17:56.636Z,6.53
2019-05-16T15:20:29.828Z,6.53
2019-05-16T15:22:59.258Z,3.60
2019-05-16T15:25:37.728Z,6.50
2019-05-16T15:28:07.766Z,4.60
2019-05-16T15:30:39.364Z,4.70
2019-05-16T15:33:11.202Z,3.60
2019-05-16T15:35:50.326Z,4.20
2019-05-16T15:38:19.706Z,3.20
2019-05-16T15:40:49.067Z,4.50
2019-05-16T15:43:21.084Z,5.03
2019-05-16T15:45:53.191Z,4.03
2019-05-16T15:48:21.288Z,5.37
2019-05-16T15:50:50.957Z,4.87
2019-05-16T15:53:21.823Z,5.97
2019-05-16T15:56:02.639Z,3.80
2019-05-16T15:58:33.639Z,3.63
2019-05-16T16:01:03.558Z,4.07
2019-05-16T16:03:33.260Z,4.33
2019-05-16T16:08:47.201Z,4.40
2019-05-16T16:11:17.278Z,6.97
2019-05-16T16:13:48.377Z,4.63
2019-05-16T16:16:28.031Z,8.03
2019-05-16T16:18:57.534Z,6.83
2019-05-16T16:21:27.550Z,6.03
2019-05-16T16:23:57.509Z,6.80
2019-05-16T16:30:42.855Z,8.00
2019-05-16T16:33:25.316Z,5.13
2019-05-16T16:35:58.903Z,4.83
2019-05-16T16:38:29.145Z,5.27
2019-05-16T16:41:02.135Z,5.57
2019-05-16T16:43:31.598Z,5.20
2019-05-16T16:46:13.647Z,5.73
2019-05-16T16:48:42.513Z,4.93
2019-05-16T16:51:12.206Z,5.07
2019-05-16T16:53:42.389Z,5.20
2019-05-16T16:56:21.048Z,6.23
2019-05-16T16:58:50.740Z,5.40
2019-05-16T17:01:20.053Z,4.33
2019-05-16T17:03:49.133Z,5.93
2019-05-16T17:06:29.840Z,4.03
2019-05-16T17:08:59.609Z,5.37
2019-05-16T17:11:29.380Z,4.20
2019-05-16T17:13:58.485Z,6.57
2019-05-16T17:16:37.903Z,4.50
2019-05-16T17:19:07.856Z,4.53
2019-05-16T17:21:37.449Z,4.33
2019-05-16T17:24:06.661Z,5.17
2019-05-16T17:29:20.282Z,3.90
2019-05-16T17:31:55.625Z,5.63
2019-05-16T17:34:21.204Z,6.93
2019-05-16T17:36:59.478Z,4.00
2019-05-16T17:39:30.678Z,4.27
2019-05-16T17:42:00.030Z,4.57
2019-05-16T17:44:31.074Z,4.03
2019-05-16T17:47:12.743Z,5.03
2019-05-16T17:49:42.596Z,5.33
2019-05-16T17:56:36.958Z,4.97
2019-05-16T17:57:46.306Z,4.83
2019-05-16T18:00:24.501Z,5.30
2019-05-16T18:02:48.298Z,5.50
2019-05-16T18:05:18.346Z,6.27
2019-05-16T18:07:56.503Z,7.57
2019-05-16T18:10:27.074Z,5.33
2019-05-16T18:12:56.846Z,5.00
2019-05-16T18:15:26.266Z,4.83
2019-05-16T18:20:54.531Z,4.10
2019-05-16T18:23:11.537Z,4.40
2019-05-16T18:25:40.894Z,4.90
2019-05-16T18:28:19.523Z,3.37
2019-05-16T18:30:49.052Z,7.73
2019-05-16T18:33:21.197Z,4.17
2019-05-16T18:35:51.108Z,5.10
2019-05-16T18:38:29.233Z,4.37
2019-05-16T18:40:58.211Z,5.53
2019-05-16T18:43:27.288Z,3.53
2019-05-16T18:45:56.804Z,4.40
2019-05-16T18:48:39.342Z,4.20
2019-05-16T18:51:22.153Z,3.90
2019-05-16T18:53:51.704Z,4.93
2019-05-16T18:56:20.877Z,5.50
2019-05-16T18:58:59.113Z,4.13
2019-05-16T19:01:28.261Z,5.33
2019-05-16T19:03:57.741Z,4.37
2019-05-16T19:06:27.631Z,4.33
2019-05-16T19:09:07.297Z,6.23
2019-05-16T19:11:36.750Z,5.60
2019-05-16T19:14:07.529Z,5.90
2019-05-16T19:16:36.868Z,6.43
2019-05-16T19:19:16.631Z,6.80
2019-05-16T19:21:46.714Z,6.30
2019-05-16T19:24:16.418Z,6.23
2019-05-16T19:26:47.091Z,8.20
2019-05-16T19:29:26.418Z,8.57
2019-05-16T19:31:57.701Z,7.50
2019-05-16T19:34:27.122Z,8.67
2019-05-16T19:36:57.465Z,12.83
2019-05-16T19:42:12.599Z,10.03
2019-05-16T19:44:42.292Z,13.00
2019-05-16T19:47:11.365Z,12.93
2019-05-16T19:49:49.556Z,11.40
2019-05-16T19:52:18.898Z,15.37
2019-05-16T19:54:49.230Z,12.50
2019-05-16T19:57:18.785Z,12.03
2019-05-16T19:59:56.852Z,11.83
2019-05-16T20:02:29.267Z,14.80
2019-05-16T20:04:58.381Z,15.17
2019-05-16T20:07:27.560Z,16.53
2019-05-16T20:10:11.313Z,15.30
2019-05-16T20:12:42.796Z,13.97
2019-05-16T20:15:12.245Z,16.63
2019-05-16T20:17:58.721Z,18.43
2019-05-16T20:20:27.917Z,16.33
2019-05-16T20:22:56.951Z,16.43
2019-05-16T20:25:26.853Z,18.00
2019-05-16T20:28:08.516Z,18.27
2019-05-16T20:30:37.239Z,17.60
2019-05-16T20:33:09.372Z,18.63
2019-05-16T20:35:37.767Z,17.00
2019-05-16T20:38:27.520Z,14.97
2019-05-16T20:40:59.844Z,17.53
2019-05-16T20:43:28.030Z,16.23
2019-05-16T20:45:58.836Z,21.57
2019-05-16T20:48:37.211Z,24.50
2019-05-16T20:51:07.285Z,24.03
2019-05-16T20:53:37.506Z,17.77
2019-05-16T20:56:06.729Z,21.00
2019-05-16T20:58:46.692Z,22.63
2019-05-16T21:01:17.320Z,22.00
2019-05-16T21:03:46.835Z,25.00
2019-05-16T21:06:17.173Z,21.93
2019-05-16T21:08:57.516Z,23.90
2019-05-16T21:11:26.775Z,22.33
2019-05-16T21:13:58.866Z,21.80
2019-05-16T21:16:28.231Z,18.00
2019-05-16T21:19:06.930Z,24.17
2019-05-16T21:21:36.781Z,25.43
2019-05-16T21:24:06.943Z,26.23
2019-05-16T21:26:36.791Z,21.33
2019-05-16T21:29:16.922Z,23.80
2019-05-16T21:31:47.413Z,41.00
2019-05-16T21:34:19.174Z,26.70
2019-05-16T21:36:51.102Z,22.77
2019-05-16T21:39:20.191Z,25.20
2019-05-16T21:41:49.317Z,25.27
2019-05-16T21:44:18.608Z,22.23
2019-05-16T21:46:47.975Z,30.77
2019-05-16T21:49:27.584Z,26.60
2019-05-16T21:51:57.072Z,29.53
2019-05-16T21:54:28.633Z,26.77
2019-05-16T21:56:57.246Z,22.50
2019-05-16T21:59:37.542Z,25.97
2019-05-16T22:02:06.358Z,21.30
2019-05-16T22:04:36.757Z,25.03
2019-05-16T22:07:07.207Z,27.87
2019-05-16T22:09:46.633Z,23.60
2019-05-16T22:12:17.392Z,24.63
2019-05-16T22:14:52.276Z,27.13
2019-05-16T22:17:21.357Z,27.23
2019-05-16T22:19:59.684Z,28.53
2019-05-16T22:22:30.000Z,26.03
2019-05-16T22:24:59.252Z,30.67
2019-05-16T22:27:28.475Z,27.00
2019-05-16T22:30:13.555Z,30.23
2019-05-16T22:32:42.589Z,27.13
2019-05-16T22:35:11.980Z,29.33
2019-05-16T22:37:52.031Z,32.63
2019-05-16T22:42:57.543Z,29.80
2019-05-16T22:45:27.104Z,33.73
2019-05-16T22:47:56.299Z,33.60
2019-05-16T22:50:36.297Z,29.00
2019-05-16T22:53:06.370Z,30.40
2019-05-16T22:55:37.171Z,31.17
2019-05-16T22:58:07.499Z,29.57
2019-05-16T23:00:45.903Z,32.23
2019-05-16T23:03:17.423Z,35.57
2019-05-16T23:05:49.946Z,38.20
2019-05-16T23:08:19.329Z,38.43
2019-05-16T23:10:57.568Z,32.13
2019-05-16T23:13:26.793Z,34.27
2019-05-16T23:15:57.170Z,38.43
2019-05-16T23:18:26.875Z,30.57
2019-05-16T23:21:06.378Z,32.53
2019-05-16T23:23:37.278Z,33.87
2019-05-16T23:26:06.660Z,37.23
2019-05-16T23:28:36.822Z,35.60
2019-05-16T23:31:16.640Z,35.70
2019-05-16T23:33:47.035Z,40.27
2019-05-16T23:36:17.652Z,40.57
2019-05-16T23:38:47.459Z,37.87
2019-05-16T23:41:27.355Z,39.57
2019-05-16T23:43:56.845Z,32.80
2019-05-16T23:46:26.298Z,37.43
2019-05-16T23:48:56.605Z,38.53
2019-05-16T23:51:36.764Z,35.07
2019-05-16T23:54:06.743Z,38.50
2019-05-16T23:56:37.187Z,40.13
2019-05-16T23:59:06.800Z,43.50
